Crestview, Florida
Current Conditions -  °F | °C
As of 8:53 AM on Wednesday 22 Oct 2014 (Local Time) from KCEW Reporting Station
Clear Clear  
Wind Chill: 64°   Ceiling: Unl
Heat Index: 64°   Visibility: 10mi
Dew Point: 53°   Wind: 7mph
Humidity: 67%   Direction: 40°NE
Pressure: 30.11"   Gusts: NA
Location:  30.76°N, 86.57°W
Report Text: KCEW 221353Z AUTO 04006KT 10SM CLR 18/12 A3011 RMK AO2 SLP193 T01780117
Loading
Personal Weather Stations






























Interactive Weather Map
Tropical Storm Tracking
New forecast layout! Learn more

10-Day Weather Forecast

Advertisements
Track Severe Weather on mobile